الصفحة الرئيسية
METAR-TAF:

METAR-TAF

مطار :

مطار مليلية

مليلية, إسبانيا

دائرة عرض: 35-17N, خط طول: 002-57W, ارتفاع: 47 متر

مراقبة الطقس الحالي

تاريخ ووقت الإصدار 24 دقيقة قبل الساعة 03:30UTC
ريح 8 عقدة من الشرق/الشمال الشرقي, الاتجاه يتراوح بين الشمال/الشمال الشرقي و الشرق
درجة الحرارة 20°درجة مئوية
الرطوبة 88%
ضغط 1020 hPa
الرؤية 10 كم أو أكثر
غيوم متفرقة على ارتفاع 1300 قدم
ملبد بالغيوم على ارتفاع 2400 قدم

METAR: GEML 270330Z AUTO 07008KT 020V100 9999 SCT013 OVC024 20/18 Q1020

زمن: 05:54 (03:54 UTC)

توقعات

تاريخ ووقت الإصدار 1ساعة و 54 دقيقة قبل الساعة 02:00UTC
التوقعات صالحة من27 الساعة 03 UTC إلى 28 الساعة 03 UTC
ريح 8 عقدة من الشرق/الشمال الشرقي
الرؤية 10 كم أو أكثر
غيوم قليلة على ارتفاع 1200 قدم
غيوم متفرقة على ارتفاع 2000 قدم
نظرية الاحتمالات 40% :
مؤقت
من 27 الساعة 03 UTC إلى 27 الساعة 10 UTC
غيوم مفككة على ارتفاع 1000 قدم

TAF: GEML 270200Z 2703/2803 07008KT 9999 FEW012 SCT020 TX24/2714Z TN19/2705Z PROB40 TEMPO 2703/2710 BKN010

أرصاد الطقس والتوقعات من أكثر من 4000 مطار (تقارير الطقس للمطار METAR والتنبؤ بالطقس بالمطارTAF).

المحطات المتاحة هي النقط الصفراء والحمراء على الخريطة.

حرك المؤشر فوق النقطة لمعرفة اسم المحطة.

ثم انقر لمعرفة أرصاد وتوقعات الطقس.

لتغيير الخارطة: اضغط على الأزرار الخضراء مع رمز الصليب الأسود للتكبير. على الزر الأخضر مع شرطة للتصغير، أو على الأسهم الخضراء للخرائط المجاورة.


METAR-TAF: